sensor_id;sensor_type;location;lat;lon;timestamp;P1;durP1;ratioP1;P2;durP2;ratioP2
13795;SDS011;40911;51.552;9.874;2022-10-16T00:06:44;3.10;;;2.00;;
13795;SDS011;40911;51.552;9.874;2022-10-16T00:09:17;2.53;;;2.03;;
13795;SDS011;40911;51.552;9.874;2022-10-16T00:11:47;4.25;;;2.20;;
13795;SDS011;40911;51.552;9.874;2022-10-16T00:14:10;2.75;;;2.10;;
13795;SDS011;40911;51.552;9.874;2022-10-16T00:16:34;1.85;;;1.75;;
13795;SDS011;40911;51.552;9.874;2022-10-16T00:18:56;2.70;;;2.28;;
13795;SDS011;40911;51.552;9.874;2022-10-16T00:21:19;2.95;;;2.20;;
13795;SDS011;40911;51.552;9.874;2022-10-16T00:23:43;2.00;;;1.90;;
13795;SDS011;40911;51.552;9.874;2022-10-16T00:26:06;3.17;;;1.85;;
13795;SDS011;40911;51.552;9.874;2022-10-16T00:28:30;2.72;;;2.17;;
13795;SDS011;40911;51.552;9.874;2022-10-16T00:30:52;4.32;;;2.13;;
13795;SDS011;40911;51.552;9.874;2022-10-16T00:33:16;3.67;;;2.28;;
13795;SDS011;40911;51.552;9.874;2022-10-16T00:35:37;2.42;;;2.22;;
13795;SDS011;40911;51.552;9.874;2022-10-16T00:37:59;5.25;;;2.25;;
13795;SDS011;40911;51.552;9.874;2022-10-16T00:40:21;2.38;;;2.13;;
13795;SDS011;40911;51.552;9.874;2022-10-16T00:45:05;3.40;;;2.13;;
13795;SDS011;40911;51.552;9.874;2022-10-16T00:47:29;2.45;;;2.22;;
13795;SDS011;40911;51.552;9.874;2022-10-16T00:49:58;2.08;;;1.98;;
13795;SDS011;40911;51.552;9.874;2022-10-16T00:52:22;4.53;;;2.13;;
13795;SDS011;40911;51.552;9.874;2022-10-16T00:54:44;2.35;;;2.20;;
13795;SDS011;40911;51.552;9.874;2022-10-16T00:57:08;2.35;;;1.90;;
13795;SDS011;40911;51.552;9.874;2022-10-16T00:59:32;2.70;;;2.00;;
13795;SDS011;40911;51.552;9.874;2022-10-16T01:01:56;6.75;;;2.20;;
13795;SDS011;40911;51.552;9.874;2022-10-16T01:04:18;3.38;;;2.00;;
13795;SDS011;40911;51.552;9.874;2022-10-16T01:06:56;4.03;;;2.08;;
13795;SDS011;40911;51.552;9.874;2022-10-16T01:13:09;2.10;;;1.90;;
13795;SDS011;40911;51.552;9.874;2022-10-16T01:31:21;2.88;;;2.20;;
13795;SDS011;40911;51.552;9.874;2022-10-16T01:34:21;2.42;;;2.22;;
13795;SDS011;40911;51.552;9.874;2022-10-16T01:37:07;6.57;;;2.47;;
13795;SDS011;40911;51.552;9.874;2022-10-16T01:39:35;2.70;;;2.40;;
13795;SDS011;40911;51.552;9.874;2022-10-16T01:42:08;4.32;;;2.33;;
13795;SDS011;40911;51.552;9.874;2022-10-16T01:44:36;2.13;;;2.00;;
13795;SDS011;40911;51.552;9.874;2022-10-16T01:47:00;2.30;;;2.10;;
13795;SDS011;40911;51.552;9.874;2022-10-16T01:49:23;3.83;;;2.30;;
13795;SDS011;40911;51.552;9.874;2022-10-16T01:51:49;2.35;;;2.05;;
13795;SDS011;40911;51.552;9.874;2022-10-16T01:54:15;2.10;;;2.00;;
13795;SDS011;40911;51.552;9.874;2022-10-16T01:56:39;2.20;;;2.00;;
13795;SDS011;40911;51.552;9.874;2022-10-16T01:59:03;3.17;;;1.95;;
13795;SDS011;40911;51.552;9.874;2022-10-16T02:01:37;2.42;;;2.22;;
13795;SDS011;40911;51.552;9.874;2022-10-16T02:04:02;2.30;;;2.10;;
13795;SDS011;40911;51.552;9.874;2022-10-16T02:06:36;2.60;;;2.40;;
13795;SDS011;40911;51.552;9.874;2022-10-16T02:09:02;2.25;;;2.05;;
13795;SDS011;40911;51.552;9.874;2022-10-16T02:11:28;3.72;;;2.65;;
13795;SDS011;40911;51.552;9.874;2022-10-16T02:17:16;2.35;;;2.15;;
13795;SDS011;40911;51.552;9.874;2022-10-16T02:19:47;3.78;;;2.60;;
13795;SDS011;40911;51.552;9.874;2022-10-16T02:22:16;3.28;;;2.53;;
13795;SDS011;40911;51.552;9.874;2022-10-16T02:24:50;2.67;;;2.47;;
13795;SDS011;40911;51.552;9.874;2022-10-16T02:27:26;2.28;;;2.10;;
13795;SDS011;40911;51.552;9.874;2022-10-16T02:29:54;3.10;;;2.45;;
13795;SDS011;40911;51.552;9.874;2022-10-16T02:32:21;2.33;;;2.10;;
13795;SDS011;40911;51.552;9.874;2022-10-16T02:34:45;2.75;;;2.53;;
13795;SDS011;40911;51.552;9.874;2022-10-16T02:37:09;2.42;;;2.10;;
13795;SDS011;40911;51.552;9.874;2022-10-16T02:39:31;2.60;;;2.38;;
13795;SDS011;40911;51.552;9.874;2022-10-16T02:41:54;2.35;;;2.13;;
13795;SDS011;40911;51.552;9.874;2022-10-16T02:44:16;2.33;;;2.13;;
13795;SDS011;40911;51.552;9.874;2022-10-16T02:49:00;4.13;;;2.50;;
13795;SDS011;40911;51.552;9.874;2022-10-16T02:51:22;2.40;;;2.05;;
13795;SDS011;40911;51.552;9.874;2022-10-16T02:53:44;4.50;;;2.03;;
13795;SDS011;40911;51.552;9.874;2022-10-16T02:56:06;2.35;;;2.00;;
13795;SDS011;40911;51.552;9.874;2022-10-16T02:58:28;4.90;;;2.20;;
13795;SDS011;40911;51.552;9.874;2022-10-16T03:00:50;2.20;;;2.10;;
13795;SDS011;40911;51.552;9.874;2022-10-16T03:03:12;2.00;;;1.90;;
13795;SDS011;40911;51.552;9.874;2022-10-16T03:07:57;3.00;;;2.10;;
13795;SDS011;40911;51.552;9.874;2022-10-16T03:10:20;2.72;;;2.17;;
13795;SDS011;40911;51.552;9.874;2022-10-16T03:13:06;2.38;;;1.90;;
13795;SDS011;40911;51.552;9.874;2022-10-16T03:17:50;3.40;;;2.45;;
13795;SDS011;40911;51.552;9.874;2022-10-16T03:20:17;3.70;;;2.00;;
13795;SDS011;40911;51.552;9.874;2022-10-16T03:25:02;3.47;;;2.05;;
13795;SDS011;40911;51.552;9.874;2022-10-16T03:27:24;2.65;;;2.22;;
13795;SDS011;40911;51.552;9.874;2022-10-16T03:32:07;4.30;;;2.25;;
13795;SDS011;40911;51.552;9.874;2022-10-16T03:36:51;2.38;;;2.20;;
13795;SDS011;40911;51.552;9.874;2022-10-16T03:39:14;2.30;;;2.10;;
13795;SDS011;40911;51.552;9.874;2022-10-16T03:41:35;2.53;;;2.33;;
13795;SDS011;40911;51.552;9.874;2022-10-16T03:46:19;3.40;;;2.65;;
13795;SDS011;40911;51.552;9.874;2022-10-16T03:51:02;3.53;;;2.47;;
13795;SDS011;40911;51.552;9.874;2022-10-16T03:53:24;2.80;;;2.45;;
13795;SDS011;40911;51.552;9.874;2022-10-16T03:55:47;4.93;;;2.38;;
13795;SDS011;40911;51.552;9.874;2022-10-16T03:58:09;4.03;;;2.70;;
13795;SDS011;40911;51.552;9.874;2022-10-16T04:02:53;2.72;;;2.42;;
13795;SDS011;40911;51.552;9.874;2022-10-16T04:07:36;5.85;;;2.60;;
13795;SDS011;40911;51.552;9.874;2022-10-16T04:09:58;3.45;;;2.60;;
13795;SDS011;40911;51.552;9.874;2022-10-16T04:12:21;2.60;;;2.40;;
13795;SDS011;40911;51.552;9.874;2022-10-16T04:14:43;2.75;;;2.47;;
13795;SDS011;40911;51.552;9.874;2022-10-16T04:17:05;2.50;;;2.30;;
13795;SDS011;40911;51.552;9.874;2022-10-16T04:19:31;2.58;;;2.42;;
13795;SDS011;40911;51.552;9.874;2022-10-16T04:22:00;2.67;;;2.47;;
13795;SDS011;40911;51.552;9.874;2022-10-16T04:24:27;5.10;;;2.55;;
13795;SDS011;40911;51.552;9.874;2022-10-16T04:26:54;4.85;;;2.53;;
13795;SDS011;40911;51.552;9.874;2022-10-16T04:29:35;4.85;;;2.53;;
13795;SDS011;40911;51.552;9.874;2022-10-16T04:31:59;3.17;;;2.47;;
13795;SDS011;40911;51.552;9.874;2022-10-16T04:36:42;3.58;;;2.30;;
13795;SDS011;40911;51.552;9.874;2022-10-16T04:39:04;2.85;;;2.40;;
13795;SDS011;40911;51.552;9.874;2022-10-16T04:43:47;3.38;;;2.40;;
13795;SDS011;40911;51.552;9.874;2022-10-16T04:48:32;2.30;;;2.20;;
13795;SDS011;40911;51.552;9.874;2022-10-16T04:50:54;2.40;;;2.17;;
13795;SDS011;40911;51.552;9.874;2022-10-16T04:53:17;2.85;;;2.25;;
13795;SDS011;40911;51.552;9.874;2022-10-16T04:55:47;2.58;;;2.38;;
13795;SDS011;40911;51.552;9.874;2022-10-16T04:58:20;3.17;;;2.40;;
13795;SDS011;40911;51.552;9.874;2022-10-16T05:03:21;2.60;;;2.40;;
13795;SDS011;40911;51.552;9.874;2022-10-16T05:05:43;3.58;;;2.20;;
13795;SDS011;40911;51.552;9.874;2022-10-16T05:08:05;5.22;;;2.10;;
13795;SDS011;40911;51.552;9.874;2022-10-16T05:12:48;6.32;;;2.40;;
13795;SDS011;40911;51.552;9.874;2022-10-16T05:15:11;5.50;;;2.05;;
13795;SDS011;40911;51.552;9.874;2022-10-16T05:17:36;5.38;;;2.20;;
13795;SDS011;40911;51.552;9.874;2022-10-16T05:20:07;1.80;;;1.70;;
13795;SDS011;40911;51.552;9.874;2022-10-16T05:22:29;2.15;;;1.95;;
13795;SDS011;40911;51.552;9.874;2022-10-16T05:27:12;2.20;;;2.00;;
13795;SDS011;40911;51.552;9.874;2022-10-16T05:29:39;2.17;;;1.98;;
13795;SDS011;40911;51.552;9.874;2022-10-16T05:32:06;4.07;;;1.95;;
13795;SDS011;40911;51.552;9.874;2022-10-16T05:34:30;1.92;;;1.83;;
13795;SDS011;40911;51.552;9.874;2022-10-16T05:39:19;5.20;;;2.25;;
13795;SDS011;40911;51.552;9.874;2022-10-16T05:41:41;2.28;;;2.00;;
13795;SDS011;40911;51.552;9.874;2022-10-16T05:44:03;5.25;;;2.00;;
13795;SDS011;40911;51.552;9.874;2022-10-16T05:46:26;2.90;;;1.90;;
13795;SDS011;40911;51.552;9.874;2022-10-16T05:51:10;2.40;;;2.20;;
13795;SDS011;40911;51.552;9.874;2022-10-16T05:53:34;3.15;;;2.08;;
13795;SDS011;40911;51.552;9.874;2022-10-16T05:55:57;3.05;;;2.10;;
13795;SDS011;40911;51.552;9.874;2022-10-16T05:58:20;2.67;;;1.92;;
13795;SDS011;40911;51.552;9.874;2022-10-16T06:00:42;3.30;;;2.10;;
13795;SDS011;40911;51.552;9.874;2022-10-16T06:03:11;3.10;;;2.10;;
13795;SDS011;40911;51.552;9.874;2022-10-16T06:05:38;3.17;;;1.75;;
13795;SDS011;40911;51.552;9.874;2022-10-16T06:08:03;2.20;;;2.00;;
13795;SDS011;40911;51.552;9.874;2022-10-16T06:10:29;3.40;;;2.10;;
13795;SDS011;40911;51.552;9.874;2022-10-16T06:12:51;2.53;;;1.95;;
13795;SDS011;40911;51.552;9.874;2022-10-16T06:17:34;2.03;;;1.85;;
13795;SDS011;40911;51.552;9.874;2022-10-16T06:22:17;2.10;;;2.00;;
13795;SDS011;40911;51.552;9.874;2022-10-16T06:24:39;2.03;;;1.80;;
13795;SDS011;40911;51.552;9.874;2022-10-16T06:27:04;2.00;;;1.80;;
13795;SDS011;40911;51.552;9.874;2022-10-16T06:29:35;2.60;;;2.00;;
13795;SDS011;40911;51.552;9.874;2022-10-16T06:31:57;2.08;;;1.80;;
13795;SDS011;40911;51.552;9.874;2022-10-16T06:36:57;2.60;;;2.00;;
13795;SDS011;40911;51.552;9.874;2022-10-16T06:42:10;2.00;;;1.80;;
13795;SDS011;40911;51.552;9.874;2022-10-16T06:44:37;4.43;;;2.20;;
13795;SDS011;40911;51.552;9.874;2022-10-16T06:47:02;3.72;;;2.30;;
13795;SDS011;40911;51.552;9.874;2022-10-16T06:49:26;2.55;;;2.00;;
13795;SDS011;40911;51.552;9.874;2022-10-16T06:51:48;3.60;;;1.80;;
13795;SDS011;40911;51.552;9.874;2022-10-16T06:54:10;2.40;;;2.20;;
13795;SDS011;40911;51.552;9.874;2022-10-16T06:56:32;2.10;;;2.00;;
13795;SDS011;40911;51.552;9.874;2022-10-16T06:58:58;4.00;;;2.10;;
13795;SDS011;40911;51.552;9.874;2022-10-16T07:01:22;4.13;;;2.25;;
13795;SDS011;40911;51.552;9.874;2022-10-16T07:03:46;5.20;;;2.55;;
13795;SDS011;40911;51.552;9.874;2022-10-16T07:06:09;3.00;;;1.90;;
13795;SDS011;40911;51.552;9.874;2022-10-16T07:08:32;2.30;;;1.90;;
13795;SDS011;40911;51.552;9.874;2022-10-16T07:10:58;2.35;;;2.17;;
13795;SDS011;40911;51.552;9.874;2022-10-16T07:13:22;2.20;;;2.00;;
13795;SDS011;40911;51.552;9.874;2022-10-16T07:15:45;2.55;;;2.10;;
13795;SDS011;40911;51.552;9.874;2022-10-16T07:18:07;3.50;;;2.22;;
13795;SDS011;40911;51.552;9.874;2022-10-16T07:20:29;4.70;;;2.22;;
13795;SDS011;40911;51.552;9.874;2022-10-16T07:22:52;2.78;;;2.15;;
13795;SDS011;40911;51.552;9.874;2022-10-16T07:25:14;4.03;;;2.10;;
13795;SDS011;40911;51.552;9.874;2022-10-16T07:27:36;2.63;;;2.30;;
13795;SDS011;40911;51.552;9.874;2022-10-16T07:29:58;2.55;;;2.35;;
13795;SDS011;40911;51.552;9.874;2022-10-16T07:34:43;4.05;;;2.33;;
13795;SDS011;40911;51.552;9.874;2022-10-16T07:37:05;2.30;;;2.10;;
13795;SDS011;40911;51.552;9.874;2022-10-16T07:41:52;3.33;;;2.30;;
13795;SDS011;40911;51.552;9.874;2022-10-16T07:44:15;2.22;;;2.00;;
13795;SDS011;40911;51.552;9.874;2022-10-16T07:46:37;2.00;;;1.90;;
13795;SDS011;40911;51.552;9.874;2022-10-16T07:49:00;5.82;;;1.90;;
13795;SDS011;40911;51.552;9.874;2022-10-16T07:51:22;3.22;;;2.00;;
13795;SDS011;40911;51.552;9.874;2022-10-16T07:53:45;2.15;;;1.95;;
13795;SDS011;40911;51.552;9.874;2022-10-16T07:56:07;3.53;;;1.80;;
13795;SDS011;40911;51.552;9.874;2022-10-16T07:58:30;1.90;;;1.67;;
13795;SDS011;40911;51.552;9.874;2022-10-16T08:00:52;1.60;;;1.40;;
13795;SDS011;40911;51.552;9.874;2022-10-16T08:05:37;1.65;;;1.40;;
13795;SDS011;40911;51.552;9.874;2022-10-16T08:07:59;1.67;;;1.58;;
13795;SDS011;40911;51.552;9.874;2022-10-16T08:10:21;2.80;;;1.40;;
13795;SDS011;40911;51.552;9.874;2022-10-16T08:12:44;3.22;;;1.38;;
13795;SDS011;40911;51.552;9.874;2022-10-16T08:15:10;1.45;;;1.40;;
13795;SDS011;40911;51.552;9.874;2022-10-16T08:17:32;1.65;;;1.55;;
13795;SDS011;40911;51.552;9.874;2022-10-16T08:19:54;2.17;;;1.50;;
13795;SDS011;40911;51.552;9.874;2022-10-16T08:24:38;2.10;;;1.20;;
13795;SDS011;40911;51.552;9.874;2022-10-16T08:27:00;1.40;;;1.33;;
13795;SDS011;40911;51.552;9.874;2022-10-16T08:31:44;1.30;;;1.30;;
13795;SDS011;40911;51.552;9.874;2022-10-16T08:34:07;1.40;;;1.30;;
13795;SDS011;40911;51.552;9.874;2022-10-16T08:38:52;1.83;;;1.40;;
13795;SDS011;40911;51.552;9.874;2022-10-16T08:41:18;1.75;;;1.38;;
13795;SDS011;40911;51.552;9.874;2022-10-16T08:43:55;3.05;;;1.42;;
13795;SDS011;40911;51.552;9.874;2022-10-16T08:46:41;1.40;;;1.30;;
13795;SDS011;40911;51.552;9.874;2022-10-16T08:49:07;1.80;;;1.38;;
13795;SDS011;40911;51.552;9.874;2022-10-16T08:51:34;1.40;;;1.30;;
13795;SDS011;40911;51.552;9.874;2022-10-16T08:53:59;3.05;;;1.33;;
13795;SDS011;40911;51.552;9.874;2022-10-16T08:56:24;3.95;;;1.35;;
13795;SDS011;40911;51.552;9.874;2022-10-16T08:58:47;1.35;;;1.20;;
13795;SDS011;40911;51.552;9.874;2022-10-16T09:01:18;1.88;;;1.30;;
13795;SDS011;40911;51.552;9.874;2022-10-16T09:03:53;1.67;;;1.10;;
13795;SDS011;40911;51.552;9.874;2022-10-16T09:06:47;1.52;;;1.20;;
13795;SDS011;40911;51.552;9.874;2022-10-16T09:09:34;1.70;;;1.10;;
13795;SDS011;40911;51.552;9.874;2022-10-16T09:12:04;3.40;;;1.10;;
13795;SDS011;40911;51.552;9.874;2022-10-16T09:14:38;1.25;;;1.13;;
13795;SDS011;40911;51.552;9.874;2022-10-16T09:17:18;1.20;;;1.10;;
13795;SDS011;40911;51.552;9.874;2022-10-16T09:19:49;3.15;;;1.10;;
13795;SDS011;40911;51.552;9.874;2022-10-16T09:22:16;1.50;;;1.23;;
13795;SDS011;40911;51.552;9.874;2022-10-16T09:24:44;2.30;;;1.20;;
13795;SDS011;40911;51.552;9.874;2022-10-16T09:27:11;2.35;;;1.00;;
13795;SDS011;40911;51.552;9.874;2022-10-16T09:29:36;1.00;;;1.00;;
13795;SDS011;40911;51.552;9.874;2022-10-16T09:32:07;1.25;;;1.15;;
13795;SDS011;40911;51.552;9.874;2022-10-16T09:34:34;2.35;;;0.90;;
13795;SDS011;40911;51.552;9.874;2022-10-16T09:36:58;3.20;;;1.15;;
13795;SDS011;40911;51.552;9.874;2022-10-16T09:39:20;1.33;;;1.00;;
13795;SDS011;40911;51.552;9.874;2022-10-16T09:44:16;1.58;;;1.15;;
13795;SDS011;40911;51.552;9.874;2022-10-16T09:46:43;1.52;;;1.02;;
13795;SDS011;40911;51.552;9.874;2022-10-16T09:49:18;1.17;;;1.02;;
13795;SDS011;40911;51.552;9.874;2022-10-16T09:51:42;2.80;;;1.40;;
13795;SDS011;40911;51.552;9.874;2022-10-16T09:56:35;1.70;;;1.02;;
13795;SDS011;40911;51.552;9.874;2022-10-16T09:59:01;1.33;;;1.10;;
13795;SDS011;40911;51.552;9.874;2022-10-16T10:01:30;1.30;;;1.20;;
13795;SDS011;40911;51.552;9.874;2022-10-16T10:03:58;1.95;;;1.05;;
13795;SDS011;40911;51.552;9.874;2022-10-16T10:06:22;1.95;;;1.10;;
13795;SDS011;40911;51.552;9.874;2022-10-16T10:08:55;1.00;;;1.00;;
13795;SDS011;40911;51.552;9.874;2022-10-16T10:11:18;2.25;;;1.27;;
13795;SDS011;40911;51.552;9.874;2022-10-16T10:14:05;1.17;;;0.90;;
13795;SDS011;40911;51.552;9.874;2022-10-16T10:16:27;1.65;;;0.90;;
13795;SDS011;40911;51.552;9.874;2022-10-16T10:21:19;4.32;;;1.20;;
13795;SDS011;40911;51.552;9.874;2022-10-16T10:23:40;2.80;;;0.98;;
13795;SDS011;40911;51.552;9.874;2022-10-16T10:26:04;2.67;;;1.17;;
13795;SDS011;40911;51.552;9.874;2022-10-16T10:28:47;1.77;;;1.10;;
13795;SDS011;40911;51.552;9.874;2022-10-16T10:31:20;2.05;;;1.10;;
13795;SDS011;40911;51.552;9.874;2022-10-16T10:33:48;1.33;;;0.90;;
13795;SDS011;40911;51.552;9.874;2022-10-16T10:36:21;1.50;;;1.00;;
13795;SDS011;40911;51.552;9.874;2022-10-16T10:38:50;1.73;;;0.90;;
13795;SDS011;40911;51.552;9.874;2022-10-16T10:47:43;0.80;;;0.80;;
13795;SDS011;40911;51.552;9.874;2022-10-16T10:50:17;1.25;;;0.80;;
13795;SDS011;40911;51.552;9.874;2022-10-16T10:52:48;4.28;;;1.00;;
13795;SDS011;40911;51.552;9.874;2022-10-16T10:55:20;1.90;;;0.80;;
13795;SDS011;40911;51.552;9.874;2022-10-16T10:57:59;3.50;;;0.90;;
13795;SDS011;40911;51.552;9.874;2022-10-16T11:00:40;3.20;;;0.90;;
13795;SDS011;40911;51.552;9.874;2022-10-16T11:03:17;3.70;;;0.90;;
13795;SDS011;40911;51.552;9.874;2022-10-16T11:05:54;1.10;;;0.85;;
13795;SDS011;40911;51.552;9.874;2022-10-16T11:08:22;1.42;;;0.90;;
13795;SDS011;40911;51.552;9.874;2022-10-16T11:10:53;1.55;;;1.08;;
13795;SDS011;40911;51.552;9.874;2022-10-16T11:13:23;0.95;;;0.90;;
13795;SDS011;40911;51.552;9.874;2022-10-16T11:15:51;3.38;;;0.90;;
13795;SDS011;40911;51.552;9.874;2022-10-16T11:18:19;1.48;;;0.80;;
13795;SDS011;40911;51.552;9.874;2022-10-16T11:20:50;1.85;;;0.80;;
13795;SDS011;40911;51.552;9.874;2022-10-16T11:23:21;1.13;;;1.00;;
13795;SDS011;40911;51.552;9.874;2022-10-16T11:28:50;1.40;;;0.95;;
13795;SDS011;40911;51.552;9.874;2022-10-16T11:31:17;2.50;;;0.80;;
13795;SDS011;40911;51.552;9.874;2022-10-16T11:33:47;1.23;;;0.80;;
13795;SDS011;40911;51.552;9.874;2022-10-16T11:36:19;1.15;;;0.82;;
13795;SDS011;40911;51.552;9.874;2022-10-16T11:39:03;2.42;;;0.75;;
13795;SDS011;40911;51.552;9.874;2022-10-16T11:44:27;2.58;;;0.70;;
13795;SDS011;40911;51.552;9.874;2022-10-16T11:47:22;0.98;;;0.77;;
13795;SDS011;40911;51.552;9.874;2022-10-16T11:50:01;1.92;;;0.90;;
13795;SDS011;40911;51.552;9.874;2022-10-16T11:54:57;3.03;;;0.80;;
13795;SDS011;40911;51.552;9.874;2022-10-16T11:57:27;0.80;;;0.80;;
13795;SDS011;40911;51.552;9.874;2022-10-16T11:59:57;1.38;;;0.90;;
13795;SDS011;40911;51.552;9.874;2022-10-16T12:05:32;1.85;;;1.10;;
13795;SDS011;40911;51.552;9.874;2022-10-16T12:08:07;1.42;;;0.80;;
13795;SDS011;40911;51.552;9.874;2022-10-16T12:10:31;2.38;;;0.80;;
13795;SDS011;40911;51.552;9.874;2022-10-16T12:12:57;3.90;;;0.70;;
13795;SDS011;40911;51.552;9.874;2022-10-16T12:15:20;0.77;;;0.77;;
13795;SDS011;40911;51.552;9.874;2022-10-16T12:17:46;1.15;;;0.77;;
13795;SDS011;40911;51.552;9.874;2022-10-16T12:20:58;0.80;;;0.63;;
13795;SDS011;40911;51.552;9.874;2022-10-16T12:23:28;2.15;;;0.80;;
13795;SDS011;40911;51.552;9.874;2022-10-16T12:26:02;2.03;;;0.70;;
13795;SDS011;40911;51.552;9.874;2022-10-16T12:28:40;1.10;;;0.70;;
13795;SDS011;40911;51.552;9.874;2022-10-16T12:31:27;1.75;;;0.70;;
13795;SDS011;40911;51.552;9.874;2022-10-16T12:34:22;1.88;;;0.80;;
13795;SDS011;40911;51.552;9.874;2022-10-16T12:46:43;1.02;;;0.65;;
13795;SDS011;40911;51.552;9.874;2022-10-16T12:49:16;2.45;;;0.80;;
13795;SDS011;40911;51.552;9.874;2022-10-16T12:55:42;1.70;;;0.60;;
13795;SDS011;40911;51.552;9.874;2022-10-16T12:58:23;1.30;;;0.60;;
13795;SDS011;40911;51.552;9.874;2022-10-16T13:01:04;1.10;;;0.75;;
13795;SDS011;40911;51.552;9.874;2022-10-16T13:03:52;2.78;;;0.80;;
13795;SDS011;40911;51.552;9.874;2022-10-16T13:06:33;1.17;;;0.70;;
13795;SDS011;40911;51.552;9.874;2022-10-16T13:09:02;2.33;;;0.80;;
13795;SDS011;40911;51.552;9.874;2022-10-16T13:11:35;0.85;;;0.85;;
13795;SDS011;40911;51.552;9.874;2022-10-16T13:14:20;0.95;;;0.73;;
13795;SDS011;40911;51.552;9.874;2022-10-16T13:16:55;2.70;;;0.80;;
13795;SDS011;40911;51.552;9.874;2022-10-16T13:19:28;2.53;;;0.75;;
13795;SDS011;40911;51.552;9.874;2022-10-16T13:21:56;1.00;;;0.80;;
13795;SDS011;40911;51.552;9.874;2022-10-16T13:24:27;2.28;;;0.60;;
13795;SDS011;40911;51.552;9.874;2022-10-16T13:27:09;2.58;;;0.73;;
13795;SDS011;40911;51.552;9.874;2022-10-16T13:29:38;2.47;;;0.60;;
13795;SDS011;40911;51.552;9.874;2022-10-16T13:32:06;0.95;;;0.73;;
13795;SDS011;40911;51.552;9.874;2022-10-16T13:34:30;1.05;;;0.70;;
13795;SDS011;40911;51.552;9.874;2022-10-16T13:36:52;0.73;;;0.60;;
13795;SDS011;40911;51.552;9.874;2022-10-16T13:39:19;2.63;;;0.70;;
13795;SDS011;40911;51.552;9.874;2022-10-16T13:41:43;2.85;;;0.70;;
13795;SDS011;40911;51.552;9.874;2022-10-16T13:44:08;0.55;;;0.55;;
13795;SDS011;40911;51.552;9.874;2022-10-16T13:46:35;1.05;;;0.68;;
13795;SDS011;40911;51.552;9.874;2022-10-16T13:48:57;1.52;;;0.68;;
13795;SDS011;40911;51.552;9.874;2022-10-16T13:51:21;1.08;;;0.75;;
13795;SDS011;40911;51.552;9.874;2022-10-16T13:53:43;1.35;;;0.60;;
13795;SDS011;40911;51.552;9.874;2022-10-16T13:56:06;1.50;;;0.70;;
13795;SDS011;40911;51.552;9.874;2022-10-16T13:58:31;3.17;;;0.60;;
13795;SDS011;40911;51.552;9.874;2022-10-16T14:00:54;0.60;;;0.60;;
13795;SDS011;40911;51.552;9.874;2022-10-16T14:03:18;1.70;;;0.73;;
13795;SDS011;40911;51.552;9.874;2022-10-16T14:05:42;3.25;;;0.65;;
13795;SDS011;40911;51.552;9.874;2022-10-16T14:08:11;1.65;;;0.70;;
13795;SDS011;40911;51.552;9.874;2022-10-16T14:10:33;1.75;;;0.82;;
13795;SDS011;40911;51.552;9.874;2022-10-16T14:12:56;1.33;;;0.63;;
13795;SDS011;40911;51.552;9.874;2022-10-16T14:15:19;1.92;;;0.60;;
13795;SDS011;40911;51.552;9.874;2022-10-16T14:17:43;0.85;;;0.70;;
13795;SDS011;40911;51.552;9.874;2022-10-16T14:20:12;2.67;;;0.70;;
13795;SDS011;40911;51.552;9.874;2022-10-16T14:22:37;1.00;;;0.77;;
13795;SDS011;40911;51.552;9.874;2022-10-16T14:25:02;1.58;;;0.80;;
13795;SDS011;40911;51.552;9.874;2022-10-16T14:27:55;1.35;;;0.60;;
13795;SDS011;40911;51.552;9.874;2022-10-16T14:30:20;1.88;;;0.70;;
13795;SDS011;40911;51.552;9.874;2022-10-16T14:32:53;0.70;;;0.70;;
13795;SDS011;40911;51.552;9.874;2022-10-16T14:35:38;0.88;;;0.73;;
13795;SDS011;40911;51.552;9.874;2022-10-16T14:38:28;2.55;;;0.70;;
13795;SDS011;40911;51.552;9.874;2022-10-16T14:44:05;1.52;;;1.00;;
13795;SDS011;40911;51.552;9.874;2022-10-16T14:46:30;1.20;;;1.00;;
13795;SDS011;40911;51.552;9.874;2022-10-16T14:49:13;3.35;;;1.83;;
13795;SDS011;40911;51.552;9.874;2022-10-16T14:51:41;2.38;;;2.10;;
13795;SDS011;40911;51.552;9.874;2022-10-16T14:54:04;5.78;;;1.92;;
13795;SDS011;40911;51.552;9.874;2022-10-16T14:56:28;3.65;;;2.60;;
13795;SDS011;40911;51.552;9.874;2022-10-16T14:58:51;2.72;;;2.25;;
13795;SDS011;40911;51.552;9.874;2022-10-16T15:01:15;1.38;;;1.10;;
13795;SDS011;40911;51.552;9.874;2022-10-16T15:03:37;1.58;;;1.00;;
13795;SDS011;40911;51.552;9.874;2022-10-16T15:06:03;0.80;;;0.80;;
13795;SDS011;40911;51.552;9.874;2022-10-16T15:08:30;2.30;;;0.88;;
13795;SDS011;40911;51.552;9.874;2022-10-16T15:10:52;4.13;;;0.95;;
13795;SDS011;40911;51.552;9.874;2022-10-16T15:13:14;1.85;;;0.70;;
13795;SDS011;40911;51.552;9.874;2022-10-16T15:15:36;0.85;;;0.70;;
13795;SDS011;40911;51.552;9.874;2022-10-16T15:18:01;1.67;;;0.68;;
13795;SDS011;40911;51.552;9.874;2022-10-16T15:20:23;2.88;;;0.80;;
13795;SDS011;40911;51.552;9.874;2022-10-16T15:22:46;2.35;;;0.85;;
13795;SDS011;40911;51.552;9.874;2022-10-16T15:25:10;3.65;;;0.77;;
13795;SDS011;40911;51.552;9.874;2022-10-16T15:27:47;0.77;;;0.60;;
13795;SDS011;40911;51.552;9.874;2022-10-16T15:30:09;1.17;;;0.73;;
13795;SDS011;40911;51.552;9.874;2022-10-16T15:32:32;1.65;;;0.95;;
13795;SDS011;40911;51.552;9.874;2022-10-16T15:34:55;0.93;;;0.77;;
13795;SDS011;40911;51.552;9.874;2022-10-16T15:37:17;1.45;;;0.73;;
13795;SDS011;40911;51.552;9.874;2022-10-16T15:39:39;2.42;;;1.38;;
13795;SDS011;40911;51.552;9.874;2022-10-16T15:42:00;3.85;;;2.45;;
13795;SDS011;40911;51.552;9.874;2022-10-16T15:44:22;4.15;;;2.72;;
13795;SDS011;40911;51.552;9.874;2022-10-16T15:46:46;6.45;;;2.67;;
13795;SDS011;40911;51.552;9.874;2022-10-16T15:49:08;4.80;;;2.60;;
13795;SDS011;40911;51.552;9.874;2022-10-16T15:51:32;3.30;;;2.58;;
13795;SDS011;40911;51.552;9.874;2022-10-16T15:53:54;4.65;;;2.88;;
13795;SDS011;40911;51.552;9.874;2022-10-16T15:56:17;3.08;;;2.30;;
13795;SDS011;40911;51.552;9.874;2022-10-16T15:58:39;4.72;;;2.97;;
13795;SDS011;40911;51.552;9.874;2022-10-16T16:01:01;4.18;;;2.53;;
13795;SDS011;40911;51.552;9.874;2022-10-16T16:03:24;9.15;;;2.70;;
13795;SDS011;40911;51.552;9.874;2022-10-16T16:05:47;2.83;;;1.92;;
13795;SDS011;40911;51.552;9.874;2022-10-16T16:08:10;5.65;;;1.95;;
13795;SDS011;40911;51.552;9.874;2022-10-16T16:10:32;3.63;;;1.95;;
13795;SDS011;40911;51.552;9.874;2022-10-16T16:12:53;3.90;;;1.60;;
13795;SDS011;40911;51.552;9.874;2022-10-16T16:15:15;2.15;;;1.60;;
13795;SDS011;40911;51.552;9.874;2022-10-16T16:17:37;3.58;;;1.48;;
13795;SDS011;40911;51.552;9.874;2022-10-16T16:19:59;1.98;;;1.55;;
13795;SDS011;40911;51.552;9.874;2022-10-16T16:22:21;2.80;;;1.50;;
13795;SDS011;40911;51.552;9.874;2022-10-16T16:24:45;3.28;;;1.58;;
13795;SDS011;40911;51.552;9.874;2022-10-16T16:27:07;3.45;;;1.20;;
13795;SDS011;40911;51.552;9.874;2022-10-16T16:29:29;1.55;;;1.40;;
13795;SDS011;40911;51.552;9.874;2022-10-16T16:31:50;1.38;;;1.10;;
13795;SDS011;40911;51.552;9.874;2022-10-16T16:34:17;2.53;;;1.30;;
13795;SDS011;40911;51.552;9.874;2022-10-16T16:36:39;2.10;;;1.23;;
13795;SDS011;40911;51.552;9.874;2022-10-16T16:39:01;1.30;;;1.17;;
13795;SDS011;40911;51.552;9.874;2022-10-16T16:41:26;4.32;;;1.60;;
13795;SDS011;40911;51.552;9.874;2022-10-16T16:43:49;2.38;;;1.60;;
13795;SDS011;40911;51.552;9.874;2022-10-16T16:46:11;3.80;;;1.90;;
13795;SDS011;40911;51.552;9.874;2022-10-16T16:48:33;4.00;;;2.20;;
13795;SDS011;40911;51.552;9.874;2022-10-16T16:50:55;3.30;;;2.10;;
13795;SDS011;40911;51.552;9.874;2022-10-16T16:53:17;6.80;;;3.25;;
13795;SDS011;40911;51.552;9.874;2022-10-16T16:55:39;5.10;;;4.30;;
13795;SDS011;40911;51.552;9.874;2022-10-16T16:58:02;4.10;;;3.70;;
13795;SDS011;40911;51.552;9.874;2022-10-16T17:00:24;5.50;;;4.57;;
13795;SDS011;40911;51.552;9.874;2022-10-16T17:02:47;6.18;;;3.67;;
13795;SDS011;40911;51.552;9.874;2022-10-16T17:05:09;4.63;;;3.10;;